sensor_id;sensor_type;location;lat;lon;timestamp;temperature;humidity
22908;DHT22;11620;50.050;8.690;2024-01-15T00:01:27;-4.50;99.90
22908;DHT22;11620;50.050;8.690;2024-01-15T00:04:13;-4.40;99.90
22908;DHT22;11620;50.050;8.690;2024-01-15T00:06:59;-4.50;99.90
22908;DHT22;11620;50.050;8.690;2024-01-15T00:09:45;-4.50;99.90
22908;DHT22;11620;50.050;8.690;2024-01-15T00:12:32;-4.40;99.90
22908;DHT22;11620;50.050;8.690;2024-01-15T00:15:18;-4.40;99.90
22908;DHT22;11620;50.050;8.690;2024-01-15T00:18:05;-4.40;99.90
22908;DHT22;11620;50.050;8.690;2024-01-15T00:20:51;-4.40;99.90
22908;DHT22;11620;50.050;8.690;2024-01-15T00:23:43;-4.40;99.90
22908;DHT22;11620;50.050;8.690;2024-01-15T00:26:32;-4.40;99.90
22908;DHT22;11620;50.050;8.690;2024-01-15T00:29:18;-4.30;99.90
22908;DHT22;11620;50.050;8.690;2024-01-15T00:32:05;-4.40;99.90
22908;DHT22;11620;50.050;8.690;2024-01-15T00:34:51;-4.40;99.90
22908;DHT22;11620;50.050;8.690;2024-01-15T00:37:38;-4.30;99.90
22908;DHT22;11620;50.050;8.690;2024-01-15T00:40:24;-4.40;99.90
22908;DHT22;11620;50.050;8.690;2024-01-15T00:43:11;-4.60;99.90
22908;DHT22;11620;50.050;8.690;2024-01-15T00:45:58;-4.60;99.90
22908;DHT22;11620;50.050;8.690;2024-01-15T00:48:44;-4.50;99.90
22908;DHT22;11620;50.050;8.690;2024-01-15T00:51:31;-4.70;99.90
22908;DHT22;11620;50.050;8.690;2024-01-15T00:54:17;-4.80;99.90
22908;DHT22;11620;50.050;8.690;2024-01-15T00:57:04;-4.70;99.90
22908;DHT22;11620;50.050;8.690;2024-01-15T00:59:50;-4.70;99.90
22908;DHT22;11620;50.050;8.690;2024-01-15T01:02:36;-4.70;99.90
22908;DHT22;11620;50.050;8.690;2024-01-15T01:05:23;-4.70;99.90
22908;DHT22;11620;50.050;8.690;2024-01-15T01:08:09;-4.70;99.90
22908;DHT22;11620;50.050;8.690;2024-01-15T01:10:56;-4.60;99.90
22908;DHT22;11620;50.050;8.690;2024-01-15T01:13:42;-4.60;99.90
22908;DHT22;11620;50.050;8.690;2024-01-15T01:16:29;-4.60;99.90
22908;DHT22;11620;50.050;8.690;2024-01-15T01:19:17;-4.60;99.90
22908;DHT22;11620;50.050;8.690;2024-01-15T01:22:03;-4.70;99.90
22908;DHT22;11620;50.050;8.690;2024-01-15T01:24:49;-4.70;99.90
22908;DHT22;11620;50.050;8.690;2024-01-15T01:27:36;-4.70;99.90
22908;DHT22;11620;50.050;8.690;2024-01-15T01:30:22;-4.60;99.90
22908;DHT22;11620;50.050;8.690;2024-01-15T01:33:08;-4.50;99.90
22908;DHT22;11620;50.050;8.690;2024-01-15T01:35:56;-4.50;99.90
22908;DHT22;11620;50.050;8.690;2024-01-15T01:38:42;-4.50;99.90
22908;DHT22;11620;50.050;8.690;2024-01-15T01:41:28;-4.60;99.90
22908;DHT22;11620;50.050;8.690;2024-01-15T01:44:15;-4.50;99.90
22908;DHT22;11620;50.050;8.690;2024-01-15T01:47:01;-4.40;99.90
22908;DHT22;11620;50.050;8.690;2024-01-15T01:49:49;-4.30;99.90
22908;DHT22;11620;50.050;8.690;2024-01-15T01:52:35;-4.30;99.90
22908;DHT22;11620;50.050;8.690;2024-01-15T01:55:24;-4.30;99.90
22908;DHT22;11620;50.050;8.690;2024-01-15T01:58:12;-4.50;99.90
22908;DHT22;11620;50.050;8.690;2024-01-15T02:00:58;-4.50;99.90
22908;DHT22;11620;50.050;8.690;2024-01-15T02:03:45;-4.50;99.90
22908;DHT22;11620;50.050;8.690;2024-01-15T02:06:31;-4.40;99.90
22908;DHT22;11620;50.050;8.690;2024-01-15T02:09:18;-4.30;99.90
22908;DHT22;11620;50.050;8.690;2024-01-15T02:12:05;-4.30;99.90
22908;DHT22;11620;50.050;8.690;2024-01-15T02:14:51;-4.30;99.90
22908;DHT22;11620;50.050;8.690;2024-01-15T02:20:42;-4.40;99.90
22908;DHT22;11620;50.050;8.690;2024-01-15T02:23:30;-4.40;99.90
22908;DHT22;11620;50.050;8.690;2024-01-15T02:26:16;-4.40;99.90
22908;DHT22;11620;50.050;8.690;2024-01-15T02:29:04;-4.60;99.90
22908;DHT22;11620;50.050;8.690;2024-01-15T02:31:51;-4.50;99.90
22908;DHT22;11620;50.050;8.690;2024-01-15T02:34:37;-4.60;99.90
22908;DHT22;11620;50.050;8.690;2024-01-15T02:37:23;-4.40;99.90
22908;DHT22;11620;50.050;8.690;2024-01-15T02:40:10;-4.50;99.90
22908;DHT22;11620;50.050;8.690;2024-01-15T02:42:56;-4.50;99.90
22908;DHT22;11620;50.050;8.690;2024-01-15T02:45:43;-4.50;99.90
22908;DHT22;11620;50.050;8.690;2024-01-15T02:48:29;-4.30;99.90
22908;DHT22;11620;50.050;8.690;2024-01-15T02:51:15;-4.30;99.90
22908;DHT22;11620;50.050;8.690;2024-01-15T02:54:01;-4.40;99.90
22908;DHT22;11620;50.050;8.690;2024-01-15T02:56:48;-4.40;99.90
22908;DHT22;11620;50.050;8.690;2024-01-15T02:59:34;-4.40;99.90
22908;DHT22;11620;50.050;8.690;2024-01-15T03:02:21;-4.30;99.90
22908;DHT22;11620;50.050;8.690;2024-01-15T03:05:07;-4.30;99.90
22908;DHT22;11620;50.050;8.690;2024-01-15T03:07:53;-4.30;99.90
22908;DHT22;11620;50.050;8.690;2024-01-15T03:10:40;-4.30;99.90
22908;DHT22;11620;50.050;8.690;2024-01-15T03:13:26;-4.30;99.90
22908;DHT22;11620;50.050;8.690;2024-01-15T03:16:13;-4.30;99.90
22908;DHT22;11620;50.050;8.690;2024-01-15T03:18:59;-4.20;99.90
22908;DHT22;11620;50.050;8.690;2024-01-15T03:21:45;-4.30;99.90
22908;DHT22;11620;50.050;8.690;2024-01-15T03:24:32;-4.40;99.90
22908;DHT22;11620;50.050;8.690;2024-01-15T03:27:18;-4.40;99.90
22908;DHT22;11620;50.050;8.690;2024-01-15T03:30:05;-4.50;99.90
22908;DHT22;11620;50.050;8.690;2024-01-15T03:32:51;-4.50;99.90
22908;DHT22;11620;50.050;8.690;2024-01-15T03:35:38;-4.60;99.90
22908;DHT22;11620;50.050;8.690;2024-01-15T03:38:24;-4.50;99.90
22908;DHT22;11620;50.050;8.690;2024-01-15T03:41:10;-4.40;99.90
22908;DHT22;11620;50.050;8.690;2024-01-15T03:43:57;-4.40;99.90
22908;DHT22;11620;50.050;8.690;2024-01-15T03:46:44;-4.20;99.90
22908;DHT22;11620;50.050;8.690;2024-01-15T03:49:34;-4.30;99.90
22908;DHT22;11620;50.050;8.690;2024-01-15T03:52:20;-4.30;99.90
22908;DHT22;11620;50.050;8.690;2024-01-15T03:55:06;-4.30;99.90
22908;DHT22;11620;50.050;8.690;2024-01-15T03:57:53;-4.30;99.90
22908;DHT22;11620;50.050;8.690;2024-01-15T04:00:39;-4.30;99.90
22908;DHT22;11620;50.050;8.690;2024-01-15T04:03:26;-4.20;99.90
22908;DHT22;11620;50.050;8.690;2024-01-15T04:06:12;-4.20;99.90
22908;DHT22;11620;50.050;8.690;2024-01-15T04:08:59;-4.20;99.90
22908;DHT22;11620;50.050;8.690;2024-01-15T04:11:45;-4.20;99.90
22908;DHT22;11620;50.050;8.690;2024-01-15T04:14:31;-4.20;99.90
22908;DHT22;11620;50.050;8.690;2024-01-15T04:17:17;-4.30;99.90
22908;DHT22;11620;50.050;8.690;2024-01-15T04:20:04;-4.30;99.90
22908;DHT22;11620;50.050;8.690;2024-01-15T04:22:51;-4.30;99.90
22908;DHT22;11620;50.050;8.690;2024-01-15T04:25:37;-4.30;99.90
22908;DHT22;11620;50.050;8.690;2024-01-15T04:28:23;-4.20;99.90
22908;DHT22;11620;50.050;8.690;2024-01-15T04:31:10;-4.30;99.90
22908;DHT22;11620;50.050;8.690;2024-01-15T04:34:06;-4.20;99.90
22908;DHT22;11620;50.050;8.690;2024-01-15T04:36:52;-4.20;99.90
22908;DHT22;11620;50.050;8.690;2024-01-15T04:39:38;-4.20;99.90
22908;DHT22;11620;50.050;8.690;2024-01-15T04:42:25;-4.20;99.90
22908;DHT22;11620;50.050;8.690;2024-01-15T04:45:11;-4.10;99.90
22908;DHT22;11620;50.050;8.690;2024-01-15T04:47:58;-4.10;99.90
22908;DHT22;11620;50.050;8.690;2024-01-15T04:50:44;-4.20;99.90
22908;DHT22;11620;50.050;8.690;2024-01-15T04:53:30;-4.10;99.90
22908;DHT22;11620;50.050;8.690;2024-01-15T04:56:17;-4.10;99.90
22908;DHT22;11620;50.050;8.690;2024-01-15T04:59:03;-4.10;99.90
22908;DHT22;11620;50.050;8.690;2024-01-15T05:01:49;-4.00;99.90
22908;DHT22;11620;50.050;8.690;2024-01-15T05:04:36;-4.00;99.90
22908;DHT22;11620;50.050;8.690;2024-01-15T05:07:22;-3.90;99.90
22908;DHT22;11620;50.050;8.690;2024-01-15T05:10:09;-3.90;99.90
22908;DHT22;11620;50.050;8.690;2024-01-15T05:12:55;-3.90;99.90
22908;DHT22;11620;50.050;8.690;2024-01-15T05:15:41;-3.90;99.90
22908;DHT22;11620;50.050;8.690;2024-01-15T05:18:28;-3.90;99.90
22908;DHT22;11620;50.050;8.690;2024-01-15T05:21:14;-4.00;99.90
22908;DHT22;11620;50.050;8.690;2024-01-15T05:24:00;-3.90;99.90
22908;DHT22;11620;50.050;8.690;2024-01-15T05:26:47;-3.80;99.90
22908;DHT22;11620;50.050;8.690;2024-01-15T05:29:33;-3.70;99.90
22908;DHT22;11620;50.050;8.690;2024-01-15T05:32:19;-3.60;99.90
22908;DHT22;11620;50.050;8.690;2024-01-15T05:35:06;-3.80;99.90
22908;DHT22;11620;50.050;8.690;2024-01-15T05:37:52;-3.80;99.90
22908;DHT22;11620;50.050;8.690;2024-01-15T05:40:38;-3.80;99.90
22908;DHT22;11620;50.050;8.690;2024-01-15T05:43:25;-3.80;99.90
22908;DHT22;11620;50.050;8.690;2024-01-15T05:46:11;-3.90;99.90
22908;DHT22;11620;50.050;8.690;2024-01-15T05:48:57;-3.90;99.90
22908;DHT22;11620;50.050;8.690;2024-01-15T05:51:44;-4.00;99.90
22908;DHT22;11620;50.050;8.690;2024-01-15T05:54:30;-3.90;99.90
22908;DHT22;11620;50.050;8.690;2024-01-15T05:57:16;-3.90;99.90
22908;DHT22;11620;50.050;8.690;2024-01-15T06:00:04;-3.90;99.90
22908;DHT22;11620;50.050;8.690;2024-01-15T06:02:50;-3.90;99.90
22908;DHT22;11620;50.050;8.690;2024-01-15T06:05:37;-3.90;99.90
22908;DHT22;11620;50.050;8.690;2024-01-15T06:08:23;-4.00;99.90
22908;DHT22;11620;50.050;8.690;2024-01-15T06:11:09;-3.90;99.90
22908;DHT22;11620;50.050;8.690;2024-01-15T06:13:55;-3.90;99.90
22908;DHT22;11620;50.050;8.690;2024-01-15T06:16:42;-4.00;99.90
22908;DHT22;11620;50.050;8.690;2024-01-15T06:19:28;-3.80;99.90
22908;DHT22;11620;50.050;8.690;2024-01-15T06:22:14;-3.80;99.90
22908;DHT22;11620;50.050;8.690;2024-01-15T06:25:01;-3.70;99.90
22908;DHT22;11620;50.050;8.690;2024-01-15T06:27:47;-3.80;99.90
22908;DHT22;11620;50.050;8.690;2024-01-15T06:30:33;-3.80;99.90
22908;DHT22;11620;50.050;8.690;2024-01-15T06:33:20;-3.90;99.90
22908;DHT22;11620;50.050;8.690;2024-01-15T06:36:06;-3.90;99.90
22908;DHT22;11620;50.050;8.690;2024-01-15T06:38:53;-3.90;99.90
22908;DHT22;11620;50.050;8.690;2024-01-15T06:41:39;-4.00;99.90
22908;DHT22;11620;50.050;8.690;2024-01-15T06:44:29;-4.00;99.90
22908;DHT22;11620;50.050;8.690;2024-01-15T06:47:15;-4.00;99.90
22908;DHT22;11620;50.050;8.690;2024-01-15T06:50:03;-4.00;99.90
22908;DHT22;11620;50.050;8.690;2024-01-15T06:52:51;-3.90;99.90
22908;DHT22;11620;50.050;8.690;2024-01-15T06:55:38;-3.90;99.90
22908;DHT22;11620;50.050;8.690;2024-01-15T06:58:25;-3.90;99.90
22908;DHT22;11620;50.050;8.690;2024-01-15T07:01:11;-3.90;99.90
22908;DHT22;11620;50.050;8.690;2024-01-15T07:03:57;-3.80;99.90
22908;DHT22;11620;50.050;8.690;2024-01-15T07:06:44;-3.90;99.90
22908;DHT22;11620;50.050;8.690;2024-01-15T07:09:30;-3.80;99.90
22908;DHT22;11620;50.050;8.690;2024-01-15T07:12:16;-3.90;99.90
22908;DHT22;11620;50.050;8.690;2024-01-15T07:15:03;-3.80;99.90
22908;DHT22;11620;50.050;8.690;2024-01-15T07:17:50;-3.70;99.90
22908;DHT22;11620;50.050;8.690;2024-01-15T07:20:36;-3.90;99.90
22908;DHT22;11620;50.050;8.690;2024-01-15T07:23:22;-4.00;99.90
22908;DHT22;11620;50.050;8.690;2024-01-15T07:26:09;-3.90;99.90
22908;DHT22;11620;50.050;8.690;2024-01-15T07:28:55;-3.90;99.90
22908;DHT22;11620;50.050;8.690;2024-01-15T07:31:48;-3.80;99.90
22908;DHT22;11620;50.050;8.690;2024-01-15T07:34:35;-3.80;99.90
22908;DHT22;11620;50.050;8.690;2024-01-15T07:37:21;-3.80;99.90
22908;DHT22;11620;50.050;8.690;2024-01-15T07:40:09;-3.80;99.90
22908;DHT22;11620;50.050;8.690;2024-01-15T07:42:56;-3.80;99.90
22908;DHT22;11620;50.050;8.690;2024-01-15T07:45:43;-3.70;99.90
22908;DHT22;11620;50.050;8.690;2024-01-15T07:48:29;-3.70;99.90
22908;DHT22;11620;50.050;8.690;2024-01-15T07:51:16;-3.70;99.90
22908;DHT22;11620;50.050;8.690;2024-01-15T07:54:02;-3.70;99.90
22908;DHT22;11620;50.050;8.690;2024-01-15T07:57:02;-3.60;99.90
22908;DHT22;11620;50.050;8.690;2024-01-15T07:59:51;-3.50;99.90
22908;DHT22;11620;50.050;8.690;2024-01-15T08:02:37;-3.50;99.90
22908;DHT22;11620;50.050;8.690;2024-01-15T08:05:24;-3.40;99.90
22908;DHT22;11620;50.050;8.690;2024-01-15T08:08:11;-3.50;99.90
22908;DHT22;11620;50.050;8.690;2024-01-15T08:10:57;-3.50;99.90
22908;DHT22;11620;50.050;8.690;2024-01-15T08:13:43;-3.40;99.90
22908;DHT22;11620;50.050;8.690;2024-01-15T08:16:30;-3.40;99.90
22908;DHT22;11620;50.050;8.690;2024-01-15T08:19:16;-3.40;99.90
22908;DHT22;11620;50.050;8.690;2024-01-15T08:22:03;-3.40;99.90
22908;DHT22;11620;50.050;8.690;2024-01-15T08:24:49;-3.40;99.90
22908;DHT22;11620;50.050;8.690;2024-01-15T08:27:35;-3.30;99.90
22908;DHT22;11620;50.050;8.690;2024-01-15T08:30:22;-3.20;99.90
22908;DHT22;11620;50.050;8.690;2024-01-15T08:33:11;-3.20;99.90
22908;DHT22;11620;50.050;8.690;2024-01-15T08:35:57;-3.10;99.90
22908;DHT22;11620;50.050;8.690;2024-01-15T08:38:43;-3.10;99.90
22908;DHT22;11620;50.050;8.690;2024-01-15T08:41:34;-3.10;99.90
22908;DHT22;11620;50.050;8.690;2024-01-15T08:44:20;-3.10;99.90
22908;DHT22;11620;50.050;8.690;2024-01-15T08:47:07;-3.10;99.90
22908;DHT22;11620;50.050;8.690;2024-01-15T08:49:53;-2.90;99.90
22908;DHT22;11620;50.050;8.690;2024-01-15T08:52:40;-3.00;99.90
22908;DHT22;11620;50.050;8.690;2024-01-15T08:55:26;-2.80;99.90
22908;DHT22;11620;50.050;8.690;2024-01-15T08:58:13;-2.90;99.90
22908;DHT22;11620;50.050;8.690;2024-01-15T09:00:59;-3.00;99.90
22908;DHT22;11620;50.050;8.690;2024-01-15T09:03:46;-2.90;99.90
22908;DHT22;11620;50.050;8.690;2024-01-15T09:06:34;-2.90;99.90
22908;DHT22;11620;50.050;8.690;2024-01-15T09:09:20;-2.80;99.90
22908;DHT22;11620;50.050;8.690;2024-01-15T09:12:07;-2.70;99.90
22908;DHT22;11620;50.050;8.690;2024-01-15T09:14:53;-2.80;99.90
22908;DHT22;11620;50.050;8.690;2024-01-15T09:17:40;-2.70;99.90
22908;DHT22;11620;50.050;8.690;2024-01-15T09:20:26;-2.70;99.90
22908;DHT22;11620;50.050;8.690;2024-01-15T09:23:13;-2.70;99.90
22908;DHT22;11620;50.050;8.690;2024-01-15T09:25:59;-2.70;99.90
22908;DHT22;11620;50.050;8.690;2024-01-15T09:28:46;-2.70;99.90
22908;DHT22;11620;50.050;8.690;2024-01-15T09:31:32;-2.80;99.90
22908;DHT22;11620;50.050;8.690;2024-01-15T09:34:18;-2.90;99.90
22908;DHT22;11620;50.050;8.690;2024-01-15T09:37:05;-2.80;99.90
22908;DHT22;11620;50.050;8.690;2024-01-15T09:39:51;-2.50;99.90
22908;DHT22;11620;50.050;8.690;2024-01-15T09:42:38;-1.90;99.90
22908;DHT22;11620;50.050;8.690;2024-01-15T09:45:24;-1.60;99.90
22908;DHT22;11620;50.050;8.690;2024-01-15T09:48:11;-1.60;99.90
22908;DHT22;11620;50.050;8.690;2024-01-15T09:50:58;-1.70;99.90
22908;DHT22;11620;50.050;8.690;2024-01-15T09:53:47;-1.90;99.90
22908;DHT22;11620;50.050;8.690;2024-01-15T09:56:34;-1.70;99.90
22908;DHT22;11620;50.050;8.690;2024-01-15T09:59:22;-1.40;99.90
22908;DHT22;11620;50.050;8.690;2024-01-15T10:02:12;-0.70;99.90
22908;DHT22;11620;50.050;8.690;2024-01-15T10:05:00;-0.30;99.90
22908;DHT22;11620;50.050;8.690;2024-01-15T10:07:48;0.20;99.90
22908;DHT22;11620;50.050;8.690;2024-01-15T10:10:36;0.40;99.90
22908;DHT22;11620;50.050;8.690;2024-01-15T10:13:23;0.30;99.90
22908;DHT22;11620;50.050;8.690;2024-01-15T10:16:09;-0.10;99.90
22908;DHT22;11620;50.050;8.690;2024-01-15T10:18:56;-0.50;99.90
22908;DHT22;11620;50.050;8.690;2024-01-15T10:21:42;-0.60;99.90
22908;DHT22;11620;50.050;8.690;2024-01-15T10:24:28;-0.70;99.90
22908;DHT22;11620;50.050;8.690;2024-01-15T10:27:15;-0.80;99.90
22908;DHT22;11620;50.050;8.690;2024-01-15T10:30:02;-1.10;99.90
22908;DHT22;11620;50.050;8.690;2024-01-15T10:33:01;-1.20;99.90
22908;DHT22;11620;50.050;8.690;2024-01-15T10:35:47;-1.00;99.90
22908;DHT22;11620;50.050;8.690;2024-01-15T10:38:34;-0.70;99.90
22908;DHT22;11620;50.050;8.690;2024-01-15T10:41:20;-0.70;99.90
22908;DHT22;11620;50.050;8.690;2024-01-15T10:44:06;-1.00;99.90
22908;DHT22;11620;50.050;8.690;2024-01-15T10:46:54;-0.90;99.90
22908;DHT22;11620;50.050;8.690;2024-01-15T10:49:41;-0.70;99.90
22908;DHT22;11620;50.050;8.690;2024-01-15T10:52:28;-0.40;99.90
22908;DHT22;11620;50.050;8.690;2024-01-15T10:55:15;-0.20;99.90
22908;DHT22;11620;50.050;8.690;2024-01-15T10:58:02;-0.30;99.90
22908;DHT22;11620;50.050;8.690;2024-01-15T11:00:49;-0.50;99.90
22908;DHT22;11620;50.050;8.690;2024-01-15T11:03:36;-0.60;99.90
22908;DHT22;11620;50.050;8.690;2024-01-15T11:06:24;-0.40;99.90
22908;DHT22;11620;50.050;8.690;2024-01-15T11:09:12;0.10;99.90
22908;DHT22;11620;50.050;8.690;2024-01-15T11:12:13;0.50;99.90
22908;DHT22;11620;50.050;8.690;2024-01-15T11:15:03;0.70;99.90
22908;DHT22;11620;50.050;8.690;2024-01-15T11:17:59;0.50;99.90
22908;DHT22;11620;50.050;8.690;2024-01-15T11:24:04;0.60;99.90
22908;DHT22;11620;50.050;8.690;2024-01-15T11:26:52;0.70;99.90
22908;DHT22;11620;50.050;8.690;2024-01-15T11:29:40;0.60;99.90
22908;DHT22;11620;50.050;8.690;2024-01-15T11:32:33;0.70;99.90
22908;DHT22;11620;50.050;8.690;2024-01-15T11:35:19;0.40;99.90
22908;DHT22;11620;50.050;8.690;2024-01-15T11:38:06;0.00;99.90
22908;DHT22;11620;50.050;8.690;2024-01-15T11:40:53;-0.30;99.90
22908;DHT22;11620;50.050;8.690;2024-01-15T11:43:39;-0.20;99.90
22908;DHT22;11620;50.050;8.690;2024-01-15T11:46:31;-0.30;99.90
22908;DHT22;11620;50.050;8.690;2024-01-15T11:52:36;-0.30;99.90
22908;DHT22;11620;50.050;8.690;2024-01-15T11:55:44;-0.50;99.90
22908;DHT22;11620;50.050;8.690;2024-01-15T11:58:31;-0.40;99.90
22908;DHT22;11620;50.050;8.690;2024-01-15T12:01:18;-0.40;99.90
22908;DHT22;11620;50.050;8.690;2024-01-15T12:04:05;-0.60;99.90
22908;DHT22;11620;50.050;8.690;2024-01-15T12:06:52;-0.70;99.90
22908;DHT22;11620;50.050;8.690;2024-01-15T12:09:43;-0.70;99.90
22908;DHT22;11620;50.050;8.690;2024-01-15T12:15:48;-0.70;99.90
22908;DHT22;11620;50.050;8.690;2024-01-15T12:18:34;-0.50;99.90
22908;DHT22;11620;50.050;8.690;2024-01-15T12:21:20;-0.50;99.90
22908;DHT22;11620;50.050;8.690;2024-01-15T12:24:10;-0.40;99.90
22908;DHT22;11620;50.050;8.690;2024-01-15T12:26:56;-0.30;99.90
22908;DHT22;11620;50.050;8.690;2024-01-15T12:29:43;-0.30;99.90
22908;DHT22;11620;50.050;8.690;2024-01-15T12:32:29;-0.30;99.90
22908;DHT22;11620;50.050;8.690;2024-01-15T12:35:16;-0.40;99.90
22908;DHT22;11620;50.050;8.690;2024-01-15T12:38:02;-0.30;99.90
22908;DHT22;11620;50.050;8.690;2024-01-15T12:40:49;-0.40;99.90
22908;DHT22;11620;50.050;8.690;2024-01-15T12:43:35;-0.30;99.90
22908;DHT22;11620;50.050;8.690;2024-01-15T12:46:23;-0.20;99.90
22908;DHT22;11620;50.050;8.690;2024-01-15T12:49:09;-0.30;99.90
22908;DHT22;11620;50.050;8.690;2024-01-15T12:51:59;-0.30;99.90
22908;DHT22;11620;50.050;8.690;2024-01-15T12:54:46;-0.40;99.90
22908;DHT22;11620;50.050;8.690;2024-01-15T12:57:32;-0.40;99.90
22908;DHT22;11620;50.050;8.690;2024-01-15T13:00:19;-0.40;99.90
22908;DHT22;11620;50.050;8.690;2024-01-15T13:03:05;-0.20;99.90
22908;DHT22;11620;50.050;8.690;2024-01-15T13:05:51;-0.10;99.90
22908;DHT22;11620;50.050;8.690;2024-01-15T13:08:38;-0.10;99.90
22908;DHT22;11620;50.050;8.690;2024-01-15T13:11:26;-0.10;99.90
22908;DHT22;11620;50.050;8.690;2024-01-15T13:14:13;0.00;99.90
22908;DHT22;11620;50.050;8.690;2024-01-15T13:17:00;0.00;99.90
22908;DHT22;11620;50.050;8.690;2024-01-15T13:19:46;0.00;99.90
22908;DHT22;11620;50.050;8.690;2024-01-15T13:22:32;0.00;99.90
22908;DHT22;11620;50.050;8.690;2024-01-15T13:25:19;0.00;99.90
22908;DHT22;11620;50.050;8.690;2024-01-15T13:28:06;-0.10;99.90
22908;DHT22;11620;50.050;8.690;2024-01-15T13:30:54;-0.10;99.90
22908;DHT22;11620;50.050;8.690;2024-01-15T13:33:40;-0.10;99.90
22908;DHT22;11620;50.050;8.690;2024-01-15T13:36:27;-0.10;99.90
22908;DHT22;11620;50.050;8.690;2024-01-15T13:39:13;0.00;99.90
22908;DHT22;11620;50.050;8.690;2024-01-15T13:41:59;-0.10;99.90
22908;DHT22;11620;50.050;8.690;2024-01-15T13:44:46;0.00;99.90
22908;DHT22;11620;50.050;8.690;2024-01-15T13:47:32;0.10;99.90
22908;DHT22;11620;50.050;8.690;2024-01-15T13:50:19;0.10;99.90
22908;DHT22;11620;50.050;8.690;2024-01-15T13:53:05;0.20;99.90
22908;DHT22;11620;50.050;8.690;2024-01-15T13:55:52;0.20;99.90
22908;DHT22;11620;50.050;8.690;2024-01-15T13:58:38;0.40;99.90
22908;DHT22;11620;50.050;8.690;2024-01-15T14:01:25;0.60;99.90
22908;DHT22;11620;50.050;8.690;2024-01-15T14:04:11;0.80;99.90
22908;DHT22;11620;50.050;8.690;2024-01-15T14:06:58;1.00;99.90
22908;DHT22;11620;50.050;8.690;2024-01-15T14:09:44;1.20;99.90
22908;DHT22;11620;50.050;8.690;2024-01-15T14:12:30;1.00;99.90
22908;DHT22;11620;50.050;8.690;2024-01-15T14:15:17;1.00;99.90
22908;DHT22;11620;50.050;8.690;2024-01-15T14:18:05;1.00;99.90
22908;DHT22;11620;50.050;8.690;2024-01-15T14:20:51;0.80;99.90
22908;DHT22;11620;50.050;8.690;2024-01-15T14:23:39;0.70;99.90
22908;DHT22;11620;50.050;8.690;2024-01-15T14:26:25;0.60;99.90
22908;DHT22;11620;50.050;8.690;2024-01-15T14:29:12;0.50;99.90
22908;DHT22;11620;50.050;8.690;2024-01-15T14:31:58;0.50;99.90
22908;DHT22;11620;50.050;8.690;2024-01-15T14:34:45;0.40;99.90
22908;DHT22;11620;50.050;8.690;2024-01-15T14:37:31;0.40;99.90
22908;DHT22;11620;50.050;8.690;2024-01-15T14:40:17;0.30;99.90
22908;DHT22;11620;50.050;8.690;2024-01-15T14:43:04;0.20;99.90
22908;DHT22;11620;50.050;8.690;2024-01-15T14:45:50;0.30;99.90
22908;DHT22;11620;50.050;8.690;2024-01-15T14:48:37;0.30;99.90
22908;DHT22;11620;50.050;8.690;2024-01-15T14:51:23;0.30;99.90
22908;DHT22;11620;50.050;8.690;2024-01-15T14:54:10;0.40;99.90
22908;DHT22;11620;50.050;8.690;2024-01-15T14:56:56;0.50;99.90
22908;DHT22;11620;50.050;8.690;2024-01-15T14:59:43;0.50;99.90
22908;DHT22;11620;50.050;8.690;2024-01-15T15:02:29;0.50;99.90
22908;DHT22;11620;50.050;8.690;2024-01-15T15:05:15;0.50;99.90
22908;DHT22;11620;50.050;8.690;2024-01-15T15:08:03;0.40;99.90
22908;DHT22;11620;50.050;8.690;2024-01-15T15:10:54;0.30;99.90
22908;DHT22;11620;50.050;8.690;2024-01-15T15:13:42;0.30;99.90
22908;DHT22;11620;50.050;8.690;2024-01-15T15:16:29;0.30;99.90
22908;DHT22;11620;50.050;8.690;2024-01-15T15:19:15;0.20;99.90
22908;DHT22;11620;50.050;8.690;2024-01-15T15:22:03;0.20;99.90
22908;DHT22;11620;50.050;8.690;2024-01-15T15:24:50;0.20;99.90
22908;DHT22;11620;50.050;8.690;2024-01-15T15:27:36;0.20;99.90
22908;DHT22;11620;50.050;8.690;2024-01-15T15:30:22;0.20;99.90
22908;DHT22;11620;50.050;8.690;2024-01-15T15:33:09;0.20;99.90
22908;DHT22;11620;50.050;8.690;2024-01-15T15:35:55;0.10;99.90
22908;DHT22;11620;50.050;8.690;2024-01-15T15:38:41;0.00;99.90
22908;DHT22;11620;50.050;8.690;2024-01-15T15:41:28;-0.10;99.90
22908;DHT22;11620;50.050;8.690;2024-01-15T15:44:14;-0.10;99.90
22908;DHT22;11620;50.050;8.690;2024-01-15T15:47:02;-0.10;99.90
22908;DHT22;11620;50.050;8.690;2024-01-15T15:49:49;-0.10;99.90
22908;DHT22;11620;50.050;8.690;2024-01-15T15:52:35;-0.10;99.90
22908;DHT22;11620;50.050;8.690;2024-01-15T15:55:22;0.00;99.90
22908;DHT22;11620;50.050;8.690;2024-01-15T15:58:09;0.00;99.90
22908;DHT22;11620;50.050;8.690;2024-01-15T16:00:56;0.00;99.90
22908;DHT22;11620;50.050;8.690;2024-01-15T16:03:42;0.00;99.90
22908;DHT22;11620;50.050;8.690;2024-01-15T16:06:28;0.00;99.90
22908;DHT22;11620;50.050;8.690;2024-01-15T16:09:15;-0.10;99.90
22908;DHT22;11620;50.050;8.690;2024-01-15T16:12:02;0.00;99.90
22908;DHT22;11620;50.050;8.690;2024-01-15T16:14:49;0.00;99.90
22908;DHT22;11620;50.050;8.690;2024-01-15T16:17:35;0.00;99.90
22908;DHT22;11620;50.050;8.690;2024-01-15T16:20:22;0.00;99.90
22908;DHT22;11620;50.050;8.690;2024-01-15T16:23:08;0.00;99.90
22908;DHT22;11620;50.050;8.690;2024-01-15T16:25:54;0.00;99.90
22908;DHT22;11620;50.050;8.690;2024-01-15T16:28:41;0.00;99.90
22908;DHT22;11620;50.050;8.690;2024-01-15T16:31:27;-0.10;99.90
22908;DHT22;11620;50.050;8.690;2024-01-15T16:34:13;-0.20;99.90
22908;DHT22;11620;50.050;8.690;2024-01-15T16:36:59;-0.30;99.90
22908;DHT22;11620;50.050;8.690;2024-01-15T16:39:46;-0.30;99.90
22908;DHT22;11620;50.050;8.690;2024-01-15T16:42:32;-0.20;99.90
22908;DHT22;11620;50.050;8.690;2024-01-15T16:45:18;-0.30;99.90
22908;DHT22;11620;50.050;8.690;2024-01-15T16:48:05;-0.30;99.90
22908;DHT22;11620;50.050;8.690;2024-01-15T16:50:51;-0.40;99.90
22908;DHT22;11620;50.050;8.690;2024-01-15T16:53:39;-0.40;99.90
22908;DHT22;11620;50.050;8.690;2024-01-15T16:56:26;-0.40;99.90
22908;DHT22;11620;50.050;8.690;2024-01-15T16:59:12;-0.50;99.90
22908;DHT22;11620;50.050;8.690;2024-01-15T17:01:46;-0.40;99.90
22908;DHT22;11620;50.050;8.690;2024-01-15T17:04:32;-0.40;99.90
22908;DHT22;11620;50.050;8.690;2024-01-15T17:07:18;-0.50;99.90
22908;DHT22;11620;50.050;8.690;2024-01-15T17:10:05;-0.50;99.90
22908;DHT22;11620;50.050;8.690;2024-01-15T17:12:51;-0.60;99.90
22908;DHT22;11620;50.050;8.690;2024-01-15T17:15:38;-0.50;99.90
22908;DHT22;11620;50.050;8.690;2024-01-15T17:18:24;-0.50;99.90
22908;DHT22;11620;50.050;8.690;2024-01-15T17:21:10;-0.40;99.90
22908;DHT22;11620;50.050;8.690;2024-01-15T17:23:57;-0.40;99.90
22908;DHT22;11620;50.050;8.690;2024-01-15T17:26:44;-0.40;99.90
22908;DHT22;11620;50.050;8.690;2024-01-15T17:29:30;-0.50;99.90
22908;DHT22;11620;50.050;8.690;2024-01-15T17:32:16;-0.50;99.90
22908;DHT22;11620;50.050;8.690;2024-01-15T17:35:03;-0.40;99.90
22908;DHT22;11620;50.050;8.690;2024-01-15T17:37:50;-0.40;99.90
22908;DHT22;11620;50.050;8.690;2024-01-15T17:40:36;-0.40;99.90
22908;DHT22;11620;50.050;8.690;2024-01-15T17:43:22;-0.30;99.90
22908;DHT22;11620;50.050;8.690;2024-01-15T17:46:09;-0.40;99.90
22908;DHT22;11620;50.050;8.690;2024-01-15T17:48:55;-0.50;99.90
22908;DHT22;11620;50.050;8.690;2024-01-15T17:51:46;-0.50;99.90